Time;durP1;ratioP1;P1;durP2;ratioP2;P2;SDS_P1;SDS_P2;PMS_P1;PMS_P2;Temp;Humidity;BMP_temperature;BMP_pressure;BME280_temperature;BME280_humidity;BME280_pressure;Samples;Min_cycle;Max_cycle;Signal;HPM_P1;HPM_P2
2023/07/26 00:02:02;;;;;;;2.55;1.73;;;;;;;12.47;100.00;100959.06;5057804;28;20048;-79
2023/07/26 00:04:29;;;;;;;2.67;2.13;;;;;;;12.50;100.00;100963.47;5089419;28;20048;-79
2023/07/26 00:06:57;;;;;;;5.13;2.10;;;;;;;12.51;100.00;100965.22;5047941;28;20053;-78
2023/07/26 00:09:24;;;;;;;3.97;1.77;;;;;;;12.53;100.00;100961.66;5059935;28;20049;-78
2023/07/26 00:11:52;;;;;;;3.33;1.85;;;;;;;12.54;100.00;100963.44;4989539;28;20060;-78
2023/07/26 00:14:19;;;;;;;8.02;3.25;;;;;;;12.57;100.00;100970.47;5061013;28;20063;-78
2023/07/26 00:16:49;;;;;;;5.80;2.10;;;;;;;12.57;100.00;100974.03;5038173;28;20056;-78
2023/07/26 00:19:19;;;;;;;5.97;2.10;;;;;;;12.59;100.00;100966.06;5029243;28;20053;-79
2023/07/26 00:21:48;;;;;;;2.88;2.15;;;;;;;12.59;100.00;100971.34;5065037;28;20041;-78
2023/07/26 00:24:15;;;;;;;4.28;2.25;;;;;;;12.59;100.00;100968.69;5054867;28;20497;-78
2023/07/26 00:26:43;;;;;;;3.63;2.33;;;;;;;12.58;100.00;100974.88;5024240;28;20053;-78
2023/07/26 00:29:12;;;;;;;4.35;2.08;;;;;;;12.58;100.00;100969.59;5041870;28;20055;-78
2023/07/26 00:31:42;;;;;;;3.95;1.80;;;;;;;12.58;100.00;100970.47;5025487;28;20044;-78
2023/07/26 00:34:10;;;;;;;3.35;2.00;;;;;;;12.57;100.00;100973.13;5047661;28;20507;-78
2023/07/26 00:36:39;;;;;;;2.17;1.70;;;;;;;12.57;100.00;100978.41;5060150;28;20032;-78
2023/07/26 00:39:07;;;;;;;4.15;2.03;;;;;;;12.56;100.00;100981.94;5042444;28;20049;-78
2023/07/26 00:41:36;;;;;;;2.25;2.05;;;;;;;12.55;100.00;100980.19;5026229;28;20422;-78
2023/07/26 00:44:03;;;;;;;6.00;2.20;;;;;;;12.54;100.00;100994.28;5065965;28;20052;-78
2023/07/26 00:46:31;;;;;;;3.90;1.60;;;;;;;12.54;100.00;100989.88;5067797;28;20040;-78
2023/07/26 00:48:59;;;;;;;4.00;1.98;;;;;;;12.54;100.00;100989.00;5029288;28;20410;-79
2023/07/26 00:51:28;;;;;;;2.35;1.73;;;;;;;12.56;100.00;100996.03;5052479;28;20052;-79
2023/07/26 00:53:55;;;;;;;3.10;1.90;;;;;;;12.59;100.00;100996.03;5046819;28;20181;-79
2023/07/26 00:56:23;;;;;;;7.13;1.92;;;;;;;12.61;100.00;100993.41;5019861;28;20506;-78
2023/07/26 00:58:51;;;;;;;2.90;1.88;;;;;;;12.62;100.00;100998.66;5061522;28;20059;-78
2023/07/26 01:01:18;;;;;;;4.80;1.63;;;;;;;12.65;100.00;100993.38;5038762;28;20053;-78
2023/07/26 01:03:46;;;;;;;2.53;1.75;;;;;;;12.64;100.00;100991.59;5047918;28;20044;-78
2023/07/26 01:06:35;;;;;;;4.30;2.10;;;;;;;12.66;100.00;100996.88;5063940;28;20056;-78
2023/07/26 01:09:13;;;;;;;4.13;1.98;;;;;;;12.70;100.00;100997.75;5060111;28;20575;-78
2023/07/26 01:12:01;;;;;;;3.90;1.58;;;;;;;12.73;100.00;100998.63;5028505;28;20457;-79
2023/07/26 01:14:38;;;;;;;3.75;1.50;;;;;;;12.75;100.00;100996.00;5051112;28;20045;-78
2023/07/26 01:17:08;;;;;;;2.15;1.45;;;;;;;12.76;100.00;100988.06;5073735;28;20055;-78
2023/07/26 01:19:36;;;;;;;4.30;1.63;;;;;;;12.77;100.00;100981.00;5066260;28;20045;-78
2023/07/26 01:22:04;;;;;;;4.30;1.30;;;;;;;12.75;100.00;100978.34;5071061;28;20809;-79
2023/07/26 01:24:31;;;;;;;2.83;1.40;;;;;;;12.74;100.00;100981.00;5049018;28;20048;-79
2023/07/26 01:26:59;;;;;;;3.53;1.80;;;;;;;12.71;100.00;100979.25;5020976;28;20094;-79
2023/07/26 01:29:27;;;;;;;5.65;1.58;;;;;;;12.70;100.00;100974.84;5055828;28;20045;-79
2023/07/26 01:31:56;;;;;;;4.07;1.70;;;;;;;12.68;100.00;100974.88;5068935;28;20559;-80
2023/07/26 01:34:26;;;;;;;1.60;1.20;;;;;;;12.68;100.00;100971.31;5050368;28;20063;-78
2023/07/26 01:36:54;;;;;;;3.30;1.60;;;;;;;12.67;100.00;100974.88;5067320;28;20466;-79
2023/07/26 01:39:24;;;;;;;2.60;1.48;;;;;;;12.68;100.00;100963.38;5046239;28;20108;-79
2023/07/26 01:41:52;;;;;;;4.47;1.75;;;;;;;12.68;100.00;100972.22;5068817;28;20406;-78
2023/07/26 01:44:20;;;;;;;3.63;1.55;;;;;;;12.70;100.00;100964.25;5024433;28;20044;-78
2023/07/26 01:46:47;;;;;;;3.20;1.45;;;;;;;12.69;100.00;100959.88;5057365;28;20052;-78
2023/07/26 01:49:23;;;;;;;3.35;1.65;;;;;;;12.70;100.00;100958.09;5010921;28;20059;-78
2023/07/26 01:51:51;;;;;;;5.53;1.60;;;;;;;12.67;100.00;100962.50;5075277;28;20051;-79
2023/07/26 01:54:19;;;;;;;3.97;1.60;;;;;;;12.68;100.00;100956.34;5039514;28;20057;-79
2023/07/26 01:56:47;;;;;;;5.95;2.15;;;;;;;12.70;100.00;100958.97;5056322;28;20065;-79
2023/07/26 01:59:15;;;;;;;3.70;1.77;;;;;;;12.69;100.00;100967.81;5012419;28;20040;-79
2023/07/26 02:01:43;;;;;;;2.38;1.70;;;;;;;12.70;100.00;100966.91;5069186;28;20051;-78
2023/07/26 02:04:11;;;;;;;2.75;1.77;;;;;;;12.70;100.00;100966.91;5039938;28;20039;-80
2023/07/26 02:06:39;;;;;;;4.63;1.80;;;;;;;12.69;100.00;100967.81;5043579;28;20053;-78
2023/07/26 02:09:06;;;;;;;5.57;1.75;;;;;;;12.68;100.00;100959.00;5048097;28;20563;-78
2023/07/26 02:11:33;;;;;;;4.35;1.50;;;;;;;12.68;100.00;100952.81;5055912;28;20067;-79
2023/07/26 02:14:02;;;;;;;6.75;1.83;;;;;;;12.65;100.00;100948.44;5010924;28;20048;-78
2023/07/26 02:16:30;;;;;;;2.78;1.65;;;;;;;12.65;100.00;100942.25;5063997;28;20045;-78
2023/07/26 02:18:57;;;;;;;4.82;1.92;;;;;;;12.63;100.00;100949.31;5061458;28;20053;-78
2023/07/26 02:21:24;;;;;;;4.35;1.90;;;;;;;12.60;100.00;100936.09;5041912;28;20060;-78
2023/07/26 02:23:52;;;;;;;3.92;2.10;;;;;;;12.56;100.00;100945.81;5073781;28;20044;-79
2023/07/26 02:26:20;;;;;;;4.57;2.30;;;;;;;12.51;100.00;100947.59;5046405;28;20520;-78
2023/07/26 02:28:47;;;;;;;5.30;2.20;;;;;;;12.47;100.00;100949.34;5065177;28;20071;-79
2023/07/26 02:31:15;;;;;;;2.63;1.80;;;;;;;12.45;100.00;100947.59;4998765;28;20087;-78
2023/07/26 02:33:44;;;;;;;3.75;2.70;;;;;;;12.40;100.00;100955.56;5032471;28;20060;-78
2023/07/26 02:36:11;;;;;;;3.70;2.30;;;;;;;12.35;100.00;100951.16;5040182;28;20044;-79
2023/07/26 02:38:39;;;;;;;6.05;1.92;;;;;;;12.32;100.00;100946.75;5040446;28;20045;-79
2023/07/26 02:41:08;;;;;;;10.52;2.40;;;;;;;12.29;100.00;100952.94;5075594;28;20039;-79
2023/07/26 02:43:35;;;;;;;5.00;3.05;;;;;;;12.25;100.00;100951.19;5073022;28;20040;-78
2023/07/26 02:46:08;;;;;;;4.72;2.50;;;;;;;12.21;100.00;100952.09;5011806;28;20053;-79
2023/07/26 02:48:36;;;;;;;6.07;2.72;;;;;;;12.19;100.00;100952.94;5050786;28;20045;-78
2023/07/26 02:51:04;;;;;;;7.05;2.33;;;;;;;12.18;100.00;100953.84;5055689;28;20051;-78
2023/07/26 02:53:32;;;;;;;2.42;2.10;;;;;;;12.15;100.00;100959.13;5044217;28;20052;-78
2023/07/26 02:55:59;;;;;;;4.13;2.72;;;;;;;12.12;100.00;100956.47;5045563;28;20052;-78
2023/07/26 02:58:28;;;;;;;5.20;2.60;;;;;;;12.09;100.00;100955.59;5025874;28;20572;-79
2023/07/26 03:00:56;;;;;;;3.28;2.70;;;;;;;12.08;100.00;100955.63;5012529;28;20078;-78
2023/07/26 03:03:24;;;;;;;6.78;2.80;;;;;;;12.06;100.00;100957.38;5028812;28;20064;-78
2023/07/26 03:05:52;;;;;;;4.57;2.22;;;;;;;12.06;100.00;100968.84;5066010;28;20051;-79
2023/07/26 03:08:19;;;;;;;3.45;2.67;;;;;;;12.07;100.00;100967.06;5038004;28;20515;-79
2023/07/26 03:10:50;;;;;;;5.93;2.67;;;;;;;12.06;100.00;100966.19;5033677;28;20044;-77
2023/07/26 03:13:18;;;;;;;5.38;2.35;;;;;;;12.03;100.00;100971.47;5036806;28;20526;-79
2023/07/26 03:15:45;;;;;;;6.38;3.10;;;;;;;12.01;100.00;100975.88;5003591;28;20045;-78
2023/07/26 03:18:13;;;;;;;8.38;3.17;;;;;;;12.01;100.00;100975.88;5011262;28;20064;-78
2023/07/26 03:20:45;;;;;;;7.60;2.60;;;;;;;12.03;100.00;100975.88;5030835;28;20406;-78
2023/07/26 03:23:13;;;;;;;9.05;2.40;;;;;;;12.03;100.00;100975.88;5058910;28;20055;-77
2023/07/26 03:25:42;;;;;;;4.88;2.22;;;;;;;12.00;100.00;100976.78;5060518;28;20044;-78
2023/07/26 03:28:09;;;;;;;3.53;2.60;;;;;;;11.99;100.00;100984.69;5049878;28;20032;-78
2023/07/26 03:30:37;;;;;;;4.90;2.40;;;;;;;11.99;100.00;100984.69;5061769;28;20055;-78
2023/07/26 03:33:04;;;;;;;10.50;2.58;;;;;;;11.99;100.00;100984.69;5009619;28;20037;-78
2023/07/26 03:35:34;;;;;;;9.82;2.90;;;;;;;12.00;100.00;100989.97;5048373;28;20040;-79
2023/07/26 03:38:02;;;;;;;5.43;2.35;;;;;;;12.00;100.00;100978.50;5071567;28;20044;-79
2023/07/26 03:40:30;;;;;;;4.78;2.45;;;;;;;12.00;100.00;100982.06;5060645;28;20067;-79
2023/07/26 03:42:58;;;;;;;5.72;2.40;;;;;;;12.00;100.00;100984.69;5054621;28;20489;-79
2023/07/26 03:45:28;;;;;;;8.85;2.22;;;;;;;12.04;100.00;100974.97;5043085;28;20059;-79
2023/07/26 03:48:01;;;;;;;8.52;2.97;;;;;;;12.06;100.00;100982.03;5019614;28;20048;-78
2023/07/26 03:50:29;;;;;;;5.78;2.47;;;;;;;12.10;100.00;100988.19;5041972;28;20052;-78
2023/07/26 03:52:56;;;;;;;2.63;2.30;;;;;;;12.10;100.00;100988.19;5019552;28;20418;-78
2023/07/26 03:55:23;;;;;;;4.07;2.80;;;;;;;12.11;100.00;100994.34;5060403;28;20381;-78
2023/07/26 03:57:51;;;;;;;3.03;2.10;;;;;;;12.10;100.00;100988.19;5067086;28;20044;-79
2023/07/26 04:00:19;;;;;;;6.43;2.92;;;;;;;12.12;100.00;100993.47;5043790;28;20057;-77
2023/07/26 04:02:46;;;;;;;5.45;2.75;;;;;;;12.12;100.00;101001.38;5015654;28;20056;-77
2023/07/26 04:05:14;;;;;;;3.30;2.70;;;;;;;12.11;100.00;100991.72;5028136;28;20502;-78
2023/07/26 04:07:43;;;;;;;6.82;2.30;;;;;;;12.13;100.00;101000.53;5065970;28;20048;-78
2023/07/26 04:10:10;;;;;;;4.93;2.53;;;;;;;12.14;100.00;100997.88;5053350;28;20051;-78
2023/07/26 04:12:38;;;;;;;6.75;2.50;;;;;;;12.16;100.00;101003.16;5048035;28;20043;-78
2023/07/26 04:15:06;;;;;;;5.85;2.83;;;;;;;12.18;100.00;101006.69;5031756;28;20045;-78
2023/07/26 04:17:33;;;;;;;4.28;2.67;;;;;;;12.18;100.00;101006.69;5010857;28;20056;-78
2023/07/26 04:20:01;;;;;;;6.28;2.72;;;;;;;12.16;100.00;101011.97;5042698;28;20075;-79
2023/07/26 04:22:29;;;;;;;6.45;3.22;;;;;;;12.15;100.00;101004.91;5060038;28;20045;-78
2023/07/26 04:24:57;;;;;;;4.80;3.10;;;;;;;12.15;100.00;101012.84;5047686;28;20045;-78
2023/07/26 04:27:26;;;;;;;7.40;3.10;;;;;;;12.16;100.00;101006.69;5061692;28;20057;-79
2023/07/26 04:29:53;;;;;;;8.07;3.42;;;;;;;12.16;100.00;101011.09;5082303;28;20051;-80
2023/07/26 04:32:20;;;;;;;7.70;2.90;;;;;;;12.16;100.00;101008.44;5062319;28;20049;-79
2023/07/26 04:34:48;;;;;;;5.80;3.05;;;;;;;12.17;100.00;101005.78;5032154;28;20037;-79
2023/07/26 04:37:16;;;;;;;4.47;3.00;;;;;;;12.17;100.00;101000.50;5050152;28;20048;-78
2023/07/26 04:39:46;;;;;;;5.25;2.60;;;;;;;12.17;100.00;101002.28;5029175;28;20616;-79
2023/07/26 04:42:13;;;;;;;5.95;2.88;;;;;;;12.15;100.00;101004.03;5053883;28;20063;-78
2023/07/26 04:44:42;;;;;;;4.82;2.92;;;;;;;12.15;100.00;101011.97;5063828;28;20041;-78
2023/07/26 04:47:09;;;;;;;3.90;3.03;;;;;;;12.14;100.00;101015.50;5038764;28;20060;-79
2023/07/26 04:49:37;;;;;;;5.90;3.10;;;;;;;12.12;100.00;101002.28;4997315;28;20049;-78
2023/07/26 04:52:04;;;;;;;5.57;3.08;;;;;;;12.13;100.00;101008.44;5045699;28;20060;-77
2023/07/26 04:54:34;;;;;;;4.68;2.88;;;;;;;12.15;100.00;101011.97;5026358;28;20051;-79
2023/07/26 04:57:01;;;;;;;6.43;3.03;;;;;;;12.15;100.00;101011.97;5042968;28;20045;-78
2023/07/26 04:59:30;;;;;;;5.90;3.30;;;;;;;12.16;100.00;101008.44;5047345;28;20044;-79
2023/07/26 05:01:57;;;;;;;6.45;3.20;;;;;;;12.16;100.00;101011.09;5046082;28;20055;-79
2023/07/26 05:04:26;;;;;;;6.07;2.90;;;;;;;12.16;100.00;101011.09;5002538;28;20045;-79
2023/07/26 05:06:53;;;;;;;5.80;2.90;;;;;;;12.16;100.00;101013.72;5042025;28;20064;-79
2023/07/26 05:09:21;;;;;;;6.55;3.40;;;;;;;12.13;100.00;101019.00;5056388;28;20048;-79
2023/07/26 05:11:48;;;;;;;5.32;3.00;;;;;;;12.14;100.00;101023.44;5040450;28;20048;-80
2023/07/26 05:14:17;;;;;;;3.47;2.92;;;;;;;12.13;100.00;101017.25;5049556;28;20056;-78
2023/07/26 05:16:44;;;;;;;3.95;3.05;;;;;;;12.12;100.00;101017.22;5028475;28;20080;-78
2023/07/26 05:19:12;;;;;;;6.13;3.22;;;;;;;12.10;100.00;101025.19;5009937;28;20044;-77
2023/07/26 05:21:42;;;;;;;4.45;2.75;;;;;;;12.09;100.00;101019.00;5028458;28;20064;-77
2023/07/26 05:24:09;;;;;;;5.18;3.33;;;;;;;12.10;100.00;101019.91;5055170;28;20055;-77
2023/07/26 05:26:38;;;;;;;5.85;2.97;;;;;;;12.13;100.00;101024.28;5044993;28;20383;-78
2023/07/26 05:29:15;;;;;;;5.15;3.38;;;;;;;12.13;100.00;101027.81;5059277;28;20562;-78
2023/07/26 05:31:42;;;;;;;7.40;3.00;;;;;;;12.17;100.00;101048.06;5059341;28;20048;-79
2023/07/26 05:34:13;;;;;;;5.38;3.10;;;;;;;12.21;100.00;101039.28;5055153;28;20501;-79
2023/07/26 05:36:41;;;;;;;5.75;3.10;;;;;;;12.25;100.00;101040.16;5011200;28;20933;-78
2023/07/26 05:39:08;;;;;;;3.22;2.58;;;;;;;12.31;100.00;101039.28;5023400;28;20040;-78
2023/07/26 05:41:36;;;;;;;6.28;2.88;;;;;;;12.39;100.00;101048.94;5033269;28;20052;-78
2023/07/26 05:44:03;;;;;;;3.22;2.92;;;;;;;12.43;100.00;101044.53;5039688;28;20051;-78
2023/07/26 05:46:31;;;;;;;7.03;3.20;;;;;;;12.51;100.00;101055.09;5036225;28;20059;-77
2023/07/26 05:48:58;;;;;;;3.97;3.13;;;;;;;12.63;100.00;101052.44;5023026;28;20056;-78
2023/07/26 05:51:25;;;;;;;5.45;2.50;;;;;;;12.79;100.00;101048.84;5025657;28;20525;-78
2023/07/26 05:53:53;;;;;;;3.63;2.70;;;;;;;13.15;100.00;101046.09;5059792;28;20051;-77
2023/07/26 05:56:20;;;;;;;3.75;2.83;;;;;;;13.38;100.00;101048.66;5062090;28;20057;-77
2023/07/26 05:58:49;;;;;;;6.63;3.10;;;;;;;13.52;100.00;101045.94;5042011;28;20044;-77
2023/07/26 06:01:18;;;;;;;4.75;2.90;;;;;;;13.66;100.00;101041.44;5050449;28;20798;-78
2023/07/26 06:03:46;;;;;;;6.25;3.00;;;;;;;13.72;100.00;101043.16;5036277;28;20052;-77
2023/07/26 06:06:17;;;;;;;6.68;3.22;;;;;;;13.71;100.00;101038.78;5048312;28;20064;-78
2023/07/26 06:08:45;;;;;;;4.50;2.90;;;;;;;13.68;100.00;101046.72;5028573;28;20640;-75
2023/07/26 06:11:12;;;;;;;5.75;3.00;;;;;;;13.66;100.00;101041.44;5038326;28;20420;-78
2023/07/26 06:13:40;;;;;;;5.07;3.20;;;;;;;13.70;100.00;101037.88;5036381;28;20404;-76
2023/07/26 06:16:08;;;;;;;5.28;3.13;;;;;;;13.74;100.00;101046.69;5056070;28;20118;-78
2023/07/26 06:18:36;;;;;;;6.90;3.55;;;;;;;13.80;100.00;101046.66;5048502;28;20524;-78
2023/07/26 06:21:04;;;;;;;7.32;3.28;;;;;;;13.89;100.00;101045.69;5034991;28;20064;-77
2023/07/26 06:23:31;;;;;;;5.72;3.55;;;;;;;13.99;100.00;101058.88;5039853;28;20414;-77
2023/07/26 06:25:59;;;;;;;6.47;3.38;;;;;;;14.13;100.00;101056.09;5049825;28;20055;-79
2023/07/26 06:28:26;;;;;;;5.30;3.30;;;;;;;14.26;100.00;101059.53;5037356;28;20049;-76
2023/07/26 06:30:55;;;;;;;8.40;3.17;;;;;;;14.30;100.00;101069.22;5023560;28;20049;-76
2023/07/26 06:33:23;;;;;;;7.35;2.88;;;;;;;14.26;100.00;101062.19;5044467;28;20048;-77
2023/07/26 06:35:54;;;;;;;4.05;3.10;;;;;;;14.18;100.00;101056.09;5040905;28;20057;-77
2023/07/26 06:38:22;;;;;;;7.13;3.42;;;;;;;14.08;100.00;101060.53;5034280;28;20409;-78
2023/07/26 06:40:51;;;;;;;4.40;2.60;;;;;;;13.98;100.00;101065.03;5062748;28;20717;-78
2023/07/26 06:43:18;;;;;;;3.65;2.30;;;;;;;13.87;100.00;101056.28;5044990;28;20052;-78
2023/07/26 06:45:47;;;;;;;4.53;2.20;;;;;;;13.79;100.00;101058.13;5038702;28;20044;-76
2023/07/26 06:48:14;;;;;;;5.90;2.72;;;;;;;13.65;100.00;101063.53;5058599;28;20048;-77
2023/07/26 06:50:42;;;;;;;4.32;2.55;;;;;;;13.57;100.00;101066.22;5022208;28;20051;-77
2023/07/26 06:53:10;;;;;;;3.00;2.63;;;;;;;13.52;100.00;101068.00;5059631;28;20067;-77
2023/07/26 06:55:38;;;;;;;5.10;2.20;;;;;;;13.45;100.00;101063.63;5056709;28;20456;-76
2023/07/26 06:58:06;;;;;;;8.75;3.03;;;;;;;13.42;100.00;101058.34;5063367;28;20055;-77
2023/07/26 07:00:33;;;;;;;8.95;2.83;;;;;;;13.38;100.00;101056.59;5038625;28;20052;-76
2023/07/26 07:03:03;;;;;;;4.90;3.00;;;;;;;13.38;100.00;101060.16;5058332;28;20041;-77
2023/07/26 07:05:35;;;;;;;7.25;2.95;;;;;;;13.43;100.00;101063.63;5046192;28;20044;-77
2023/07/26 07:08:02;;;;;;;5.68;2.50;;;;;;;13.51;100.00;101054.75;5053845;28;20413;-77
2023/07/26 07:10:30;;;;;;;9.07;3.22;;;;;;;13.67;100.00;101055.53;5018712;28;20044;-77
2023/07/26 07:12:57;;;;;;;4.25;3.08;;;;;;;13.88;100.00;101055.41;5057556;28;20048;-77
2023/07/26 07:15:25;;;;;;;5.35;2.63;;;;;;;14.06;100.00;101062.34;5040017;28;20044;-78
2023/07/26 07:17:53;;;;;;;4.82;2.90;;;;;;;14.24;100.00;101070.13;5056709;28;20048;-77
2023/07/26 07:20:41;;;;;;;7.45;2.88;;;;;;;14.50;100.00;101066.41;5031057;28;20051;-77
2023/07/26 07:23:10;;;;;;;4.82;2.75;;;;;;;14.71;100.00;101064.47;5047562;28;20052;-77
2023/07/26 07:25:38;;;;;;;4.72;2.50;;;;;;;14.96;100.00;101067.72;5008006;28;20049;-77
2023/07/26 07:28:06;;;;;;;6.78;2.55;;;;;;;15.22;100.00;101067.41;5064871;28;20048;-77
2023/07/26 07:30:34;;;;;;;6.05;2.50;;;;;;;15.47;100.00;101060.00;5049588;28;20047;-77
2023/07/26 07:33:01;;;;;;;6.60;3.10;;;;;;;15.64;100.00;101057.09;5023245;28;20493;-77
2023/07/26 07:35:30;;;;;;;6.18;2.92;;;;;;;15.85;100.00;101063.91;5043464;28;20076;-77
2023/07/26 07:37:57;;;;;;;6.63;2.65;;;;;;;15.92;100.00;101062.91;5035924;28;20421;-78
2023/07/26 07:40:26;;;;;;;4.43;1.90;;;;;;;15.92;100.00;101064.69;5003255;28;20057;-79
2023/07/26 07:42:54;;;;;;;2.20;1.60;;;;;;;15.99;100.00;101074.31;5055778;28;20810;-79
2023/07/26 07:45:22;;;;;;;1.75;1.60;;;;;;;15.92;100.00;101068.22;5045073;28;20052;-82
2023/07/26 07:47:50;;;;;;;2.45;1.65;;;;;;;15.94;100.00;101069.06;5050289;28;20055;-79
2023/07/26 07:50:17;;;;;;;2.45;1.90;;;;;;;15.99;100.00;101066.34;5050372;28;20536;-82
2023/07/26 07:52:47;;;;;;;4.25;2.17;;;;;;;15.94;100.00;101077.06;5072193;28;20055;-81
2023/07/26 07:55:26;;;;;;;1.52;1.42;;;;;;;16.03;100.00;101065.41;5031619;28;20049;-82
2023/07/26 07:57:54;;;;;;;2.50;1.55;;;;;;;16.13;100.00;101071.44;5032040;28;20048;-81
2023/07/26 08:00:22;;;;;;;3.08;1.95;;;;;;;16.20;100.00;101069.56;5057213;28;20072;-82
2023/07/26 08:02:50;;;;;;;1.75;1.63;;;;;;;16.21;100.00;101072.19;5028793;28;20049;-81
2023/07/26 08:05:19;;;;;;;1.38;1.00;;;;;;;16.20;100.00;101074.88;5049698;28;20053;-81
2023/07/26 08:07:49;;;;;;;3.35;2.33;;;;;;;16.18;100.00;101078.44;5041278;28;20059;-80
2023/07/26 08:10:16;;;;;;;1.33;1.23;;;;;;;16.10;100.00;101084.78;5025751;28;20059;-79
2023/07/26 08:12:44;;;;;;;3.17;1.50;;;;;;;15.96;100.00;101082.34;5040359;28;20418;-80
2023/07/26 08:15:13;;;;;;;2.85;1.60;;;;;;;15.87;100.00;101082.50;5034118;28;20057;-81
2023/07/26 08:17:41;;;;;;;1.83;1.42;;;;;;;15.80;100.00;101076.38;5055982;28;20036;-81
2023/07/26 08:20:11;;;;;;;1.63;1.52;;;;;;;15.87;100.00;101091.31;5065583;28;20057;-79
2023/07/26 08:22:46;;;;;;;1.45;1.35;;;;;;;15.98;100.00;101088.53;5080832;28;20520;-83
2023/07/26 08:25:56;;;;;;;4.90;1.60;;;;;;;16.03;100.00;101083.13;5030015;28;20068;-81
2023/07/26 08:28:29;;;;;;;1.42;1.33;;;;;;;16.12;100.00;101085.63;4991454;28;20045;-84
2023/07/26 08:30:57;;;;;;;2.35;1.40;;;;;;;16.27;100.00;101082.72;5027803;28;20057;-81
2023/07/26 08:33:27;;;;;;;2.20;1.77;;;;;;;16.41;100.00;101087.81;5004720;28;20052;-81
2023/07/26 08:35:55;;;;;;;1.90;1.45;;;;;;;16.47;100.00;101085.06;5016657;28;20045;-81
2023/07/26 08:38:23;;;;;;;5.03;1.30;;;;;;;16.43;100.00;101087.81;5027253;28;20061;-82
2023/07/26 08:40:50;;;;;;;3.10;1.42;;;;;;;16.37;100.00;101083.47;5003651;28;20495;-82
2023/07/26 08:43:21;;;;;;;1.30;1.20;;;;;;;16.35;100.00;101091.47;4979799;28;20068;-80
2023/07/26 08:45:50;;;;;;;1.30;0.93;;;;;;;16.33;100.00;101087.97;5013664;28;20757;-83
2023/07/26 08:48:22;;;;;;;1.58;1.10;;;;;;;16.36;100.00;101093.22;5014247;28;20045;-83
2023/07/26 08:50:50;;;;;;;1.10;1.00;;;;;;;16.43;100.00;101083.34;5023351;28;20065;-81
2023/07/26 08:53:20;;;;;;;0.90;0.70;;;;;;;16.56;100.00;101065.41;5033877;28;20044;-83
2023/07/26 08:55:49;;;;;;;1.35;1.10;;;;;;;16.72;100.00;101073.97;5026262;28;20064;-81
2023/07/26 08:58:17;;;;;;;1.65;1.00;;;;;;;16.76;100.00;101065.00;4984390;28;20049;-80
2023/07/26 09:00:46;;;;;;;1.08;1.00;;;;;;;16.82;100.00;101064.03;5030249;28;20060;-81
2023/07/26 09:03:14;;;;;;;1.58;1.48;;;;;;;16.84;100.00;101067.56;5029004;28;20056;-81
2023/07/26 09:05:42;;;;;;;1.25;1.17;;;;;;;16.90;100.00;101065.69;5069961;28;20047;-81
2023/07/26 09:08:11;;;;;;;2.67;1.77;;;;;;;16.90;100.00;101073.66;5040030;28;20055;-80
2023/07/26 09:10:40;;;;;;;2.33;1.80;;;;;;;16.93;100.00;101072.72;5056991;28;20061;-81
2023/07/26 09:13:14;;;;;;;1.70;1.52;;;;;;;16.95;100.00;101077.09;5029988;28;20056;-81
2023/07/26 09:15:43;;;;;;;2.30;1.38;;;;;;;17.05;100.00;101071.59;5069838;28;20048;-82
2023/07/26 09:18:12;;;;;;;2.20;1.30;;;;;;;17.20;100.00;101060.66;5058696;28;20051;-81
2023/07/26 09:20:46;;;;;;;1.88;1.33;;;;;;;17.38;100.00;101070.00;5069805;28;20055;-81
2023/07/26 09:23:16;;;;;;;2.00;1.38;;;;;;;17.49;100.00;101067.13;5045462;28;20052;-80
2023/07/26 09:25:44;;;;;;;2.58;1.58;;;;;;;17.45;100.00;101068.97;5059825;28;20047;-81
2023/07/26 09:28:14;;;;;;;4.72;1.52;;;;;;;17.47;100.00;101074.28;5070582;28;20044;-81
2023/07/26 09:30:45;;;;;;;6.35;1.67;;;;;;;17.49;100.00;101072.47;5019024;28;20055;-81
2023/07/26 09:33:13;;;;;;;1.90;1.20;;;;;;;17.39;100.00;101071.78;5081973;28;20047;-81
2023/07/26 09:35:46;;;;;;;1.50;1.02;;;;;;;17.34;100.00;101071.00;5053695;28;20063;-79
2023/07/26 09:38:16;;;;;;;4.82;1.40;;;;;;;17.30;100.00;101072.84;5067766;28;20056;-80
2023/07/26 09:40:43;;;;;;;2.50;1.45;;;;;;;17.36;100.00;101076.28;5074635;28;20071;-80
2023/07/26 09:43:11;;;;;;;2.03;1.50;;;;;;;17.42;100.00;101066.38;5077405;28;20408;-80
2023/07/26 09:45:40;;;;;;;1.85;1.40;;;;;;;17.38;100.00;101071.81;5038727;28;20551;-79
2023/07/26 09:48:11;;;;;;;4.00;1.80;;;;;;;17.37;100.00;101078.91;5056920;28;20044;-79
2023/07/26 09:50:43;;;;;;;1.52;1.42;;;;;;;17.32;100.00;101067.50;5033029;28;20056;-78
2023/07/26 09:53:13;;;;;;;4.43;1.65;;;;;;;17.24;100.00;101065.00;5064606;28;20063;-77
2023/07/26 09:55:41;;;;;;;3.00;1.92;;;;;;;17.36;100.00;101062.97;5069395;28;20044;-78
2023/07/26 09:58:10;;;;;;;3.67;1.88;;;;;;;17.48;100.00;101066.22;5069205;28;20049;-77
2023/07/26 10:00:38;;;;;;;3.67;2.22;;;;;;;17.72;100.00;101064.81;5025096;28;20052;-77
2023/07/26 10:03:06;;;;;;;2.17;1.73;;;;;;;17.88;100.00;101068.03;5062837;28;20051;-77
2023/07/26 10:05:42;;;;;;;1.58;1.48;;;;;;;17.85;100.00;101056.56;5037554;28;20053;-77
2023/07/26 10:08:11;;;;;;;6.10;2.10;;;;;;;17.84;100.00;101061.00;5038957;28;20060;-77
2023/07/26 10:10:41;;;;;;;3.55;1.65;;;;;;;17.96;100.00;101054.53;5055843;28;20052;-75
2023/07/26 10:13:10;;;;;;;4.47;2.00;;;;;;;18.07;100.00;101052.47;5049005;28;20055;-76
2023/07/26 10:15:41;;;;;;;1.50;1.40;;;;;;;18.20;100.00;101050.34;5046395;28;20040;-77
2023/07/26 10:18:09;;;;;;;3.17;1.70;;;;;;;18.43;100.00;101052.47;5084008;28;20055;-76
2023/07/26 10:20:39;;;;;;;3.75;2.00;;;;;;;18.58;100.00;101055.63;5055813;28;20055;-76
2023/07/26 10:23:11;;;;;;;8.23;2.00;;;;;;;18.70;100.00;101053.50;5052232;28;20044;-77
2023/07/26 10:25:40;;;;;;;3.10;2.80;;;;;;;18.74;100.00;101053.44;5043260;28;20067;-77
2023/07/26 10:28:08;;;;;;;22.35;19.20;;;;;;;18.82;100.00;101052.31;5048461;28;20036;-77
2023/07/26 10:30:37;;;;;;;4.90;2.20;;;;;;;19.08;100.00;101042.69;5034671;28;20507;-77
2023/07/26 10:33:13;;;;;;;6.25;2.28;;;;;;;19.12;100.00;101036.34;5077610;28;20051;-79
2023/07/26 10:35:44;;;;;;;6.32;2.65;;;;;;;19.10;100.00;101035.50;5071117;28;20056;-79
2023/07/26 10:38:15;;;;;;;2.20;1.92;;;;;;;19.12;100.00;101035.47;5000574;28;20061;-78
2023/07/26 10:40:43;;;;;;;3.80;1.75;;;;;;;19.07;100.00;101035.59;5021500;28;20053;-78
2023/07/26 10:43:39;;;;;;;4.95;2.00;;;;;;;18.84;100.00;101039.78;4994409;28;20058;-78
2023/07/26 10:46:13;;;;;;;4.68;1.65;;;;;;;18.70;100.00;101045.50;5003823;28;20057;-78
2023/07/26 10:48:54;;;;;;;3.15;2.10;;;;;;;18.51;100.00;101060.25;5024710;28;20044;-79
2023/07/26 10:51:32;;;;;;;5.85;2.00;;;;;;;18.04;100.00;101070.34;5003178;28;20124;-80
2023/07/26 10:54:00;;;;;;;2.65;1.85;;;;;;;17.58;100.00;101093.56;5027220;28;20057;-80
2023/07/26 10:56:32;;;;;;;3.88;1.80;;;;;;;16.96;100.00;101101.94;4994803;28;20057;-78
2023/07/26 10:59:05;;;;;;;2.28;2.00;;;;;;;16.52;100.00;101101.81;5009416;28;20050;-79
2023/07/26 11:01:41;;;;;;;5.43;1.90;;;;;;;16.17;100.00;101103.28;5006988;28;20061;-79
2023/07/26 11:04:13;;;;;;;3.35;1.60;;;;;;;15.88;100.00;101117.00;4993241;28;20064;-79
2023/07/26 11:06:48;;;;;;;3.22;1.85;;;;;;;15.60;100.00;101106.72;5021934;28;20042;-79
2023/07/26 11:09:29;;;;;;;3.97;2.00;;;;;;;15.38;100.00;101106.13;5041652;28;20049;-77
2023/07/26 11:11:58;;;;;;;2.90;2.10;;;;;;;15.27;100.00;101107.16;5039231;28;20065;-77
2023/07/26 11:14:30;;;;;;;2.00;1.80;;;;;;;15.21;100.00;101097.50;5019247;28;20518;-79
2023/07/26 11:17:07;;;;;;;2.22;2.00;;;;;;;15.20;100.00;101101.94;5008207;28;20053;-79
2023/07/26 11:19:48;;;;;;;4.15;2.45;;;;;;;15.26;100.00;101097.44;5017447;28;20104;-78
2023/07/26 11:22:18;;;;;;;2.72;2.35;;;;;;;15.30;100.00;101100.03;5035211;28;20093;-79
2023/07/26 11:24:46;;;;;;;4.00;2.63;;;;;;;15.37;100.00;101090.22;5015432;28;20057;-79
2023/07/26 11:27:14;;;;;;;4.32;2.15;;;;;;;15.44;100.00;101101.63;5025296;28;20328;-78